M I D A S
Marine Information and Data Acquisition System
Tripno 2046 of the Zeeleeuw from 2011-02-23 07:51:06 to 2011-02-23 15:02:59
Back to CruiseResearch ActivitiesStationsMapUnderway DataData graphs

EquipmentUnitsComments
TimeDGPSUTC
LatitudeDGPSDM.mWGS84
LongitudeDGPSDM.mWGS84
SpeedMeteo Stationm/sRelative wind speed
DirectionMeteo StationdegRelative wind direction
TemperatureMeteo Stationdeg CelciusAir temperature
PressureMeteo StationPaAtmospheric pressure
HumidityMeteo Station%Relative humidity
Missing or incorrect values are displayed as -999
Metereological data collected by the RV Zeeleeuw from 2011-02-23 06:56:33 to 2011-02-23 15:09:00
Time Latitude Longitude Speed Direction Temperature Pressure Humidity
2011-02-23 06:57 51°13.665 2°55.957 3.1 340 1.1 102050 42
2011-02-23 06:58 51°13.662 2°55.959 1.6 344 1.1 102060 42
2011-02-23 06:59 51°13.662 2°55.96 2.1 348 1.1 102060 43
2011-02-23 07:00 51°13.662 2°55.961 4.6 346 1.1 102060 44
2011-02-23 07:01 51°13.663 2°55.96 3.3 342 1.1 102060 44
2011-02-23 07:02 51°13.663 2°55.962 3.9 359 1.1 102060 42
2011-02-23 07:03 51°13.662 2°55.961 3.8 355 1.1 102060 42
2011-02-23 07:04 51°13.663 2°55.96 2.4 351 1.1 102070 42
2011-02-23 07:05 51°13.663 2°55.96 1.1 348 1.1 102070 43
2011-02-23 07:06 51°13.662 2°55.96 3 350 1.2 102070 43
2011-02-23 07:07 51°13.663 2°55.959 1.7 353 1.1 102080 42
2011-02-23 07:08 51°13.663 2°55.96 0.7 350 1.1 102080 43
2011-02-23 07:09 51°13.663 2°55.96 1.3 348 1.1 102070 42
2011-02-23 07:10 51°13.663 2°55.96 0.2 337 1.1 102080 42
2011-02-23 07:11 51°13.663 2°55.96 3.1 337 1.2 102080 42
2011-02-23 07:12 51°13.662 2°55.96 0.9 352 1.1 102080 43
2011-02-23 07:13 51°13.662 2°55.96 0.2 356 1.1 102080 43
2011-02-23 07:14 51°13.662 2°55.96 2 334 1.1 102080 42
2011-02-23 07:15 51°13.662 2°55.96 -999 346 1.2 102080 42
2011-02-23 07:16 51°13.662 2°55.96 2.5 2 1.2 102080 42
2011-02-23 07:17 51°13.661 2°55.959 1.9 350 1.1 102090 43
2011-02-23 07:18 51°13.661 2°55.959 5.3 351 1.1 102080 43
2011-02-23 07:19 51°13.661 2°55.959 0.6 347 1.1 102080 43
2011-02-23 07:20 51°13.661 2°55.959 2.8 359 1.2 102080 43
2011-02-23 07:21 51°13.66 2°55.96 3.1 348 1.2 102080 42
2011-02-23 07:22 51°13.661 2°55.959 4.2 345 1.2 102080 41
2011-02-23 07:23 51°13.661 2°55.959 0.3 329 1.2 102080 41
2011-02-23 07:24 51°13.661 2°55.959 1.3 357 1.2 102080 43
2011-02-23 07:25 51°13.661 2°55.96 1.7 334 1.2 102080 43
2011-02-23 07:26 51°13.661 2°55.96 1.5 1 1.2 102080 41
2011-02-23 07:27 51°13.661 2°55.96 4.7 354 1.2 102090 42
2011-02-23 07:28 51°13.662 2°55.96 3.2 351 1.2 102090 41
2011-02-23 07:29 51°13.663 2°55.959 3.3 343 1.2 102090 42
2011-02-23 07:30 51°13.664 2°55.959 5.1 350 1.2 102090 41
2011-02-23 07:31 51°13.663 2°55.96 3.1 345 1.2 102090 41
2011-02-23 07:32 51°13.663 2°55.959 4.7 355 1.2 102080 41
2011-02-23 07:33 51°13.664 2°55.959 3.7 353 1.2 102080 43
2011-02-23 07:34 51°13.664 2°55.959 4.6 353 1.2 102090 43
2011-02-23 07:35 51°13.664 2°55.959 5.5 347 1.2 102090 43
2011-02-23 07:36 51°13.664 2°55.959 3.8 353 1.2 -999 28
2011-02-23 07:37 51°13.665 2°55.96 2.6 357 1.2 102080 41
2011-02-23 07:38 51°13.663 2°55.96 4.4 350 1.2 102080 41
2011-02-23 07:39 51°13.664 2°55.96 3.9 351 1.2 102080 42
2011-02-23 07:40 51°13.664 2°55.96 5.3 351 1.2 102080 43
2011-02-23 07:41 51°13.664 2°55.961 3.2 343 1.2 102080 43
2011-02-23 07:42 51°13.664 2°55.961 4.8 344 1.2 102080 43
2011-02-23 07:43 51°13.664 2°55.962 4.8 352 1.2 102080 43
2011-02-23 07:44 51°13.664 2°55.962 3.5 348 1.2 102080 41
2011-02-23 07:45 51°13.664 2°55.962 4.5 353 1.2 102080 41
2011-02-23 07:46 51°13.665 2°55.963 4.9 346 1.2 102080 41
2011-02-23 07:47 51°13.664 2°55.962 4.1 354 1.2 102080 42
2011-02-23 07:48 51°13.663 2°55.962 4 346 1.2 102080 41
2011-02-23 07:49 51°13.662 2°55.961 6 338 1.2 102080 41
2011-02-23 07:50 51°13.662 2°55.961 2.2 333 1.2 102080 43
2011-02-23 07:51 51°13.662 2°55.961 2.6 343 1.2 102080 42
2011-02-23 07:52 51°13.661 2°55.96 3.3 340 1.3 102080 43
2011-02-23 07:53 51°13.661 2°55.961 2.6 342 1.3 102080 42
2011-02-23 07:54 51°13.662 2°55.961 3.8 350 1.3 102080 41
2011-02-23 07:55 51°13.662 2°55.961 0.7 344 1.3 102080 41
2011-02-23 07:56 51°13.661 2°55.961 1.7 340 1.3 102080 43
2011-02-23 07:57 51°13.666 2°55.94 1.7 4 1.4 102080 42
2011-02-23 07:58 51°13.687 2°55.857 0.1 18 1.3 102080 42
2011-02-23 07:59 51°13.69 2°55.748 0.1 25 1.3 102080 42
2011-02-23 08:00 51°13.725 2°55.731 -999 23 1.3 102080 42
2011-02-23 08:01 51°13.827 2°55.638 -999 24 1.3 102080 42
2011-02-23 08:02 51°13.95 2°55.543 -999 23 1.3 102080 42
2011-02-23 08:03 51°14.078 2°55.449 0.1 22 1.3 102070 41
2011-02-23 08:04 51°14.224 2°55.331 -999 22 1.3 102070 42
2011-02-23 08:05 51°14.375 2°55.185 0.1 262 1.4 102070 42
2011-02-23 08:06 51°14.539 2°55.006 3.1 19 1.4 102070 42
2011-02-23 08:07 51°14.712 2°54.786 0.1 266 1.4 102060 42
2011-02-23 08:08 51°14.9 2°54.597 0.1 265 1.5 102060 42
2011-02-23 08:09 51°15.084 2°54.403 3.4 267 1.5 102060 41
2011-02-23 08:10 51°15.255 2°54.172 4.7 26 1.6 102060 42
2011-02-23 08:11 51°15.429 2°53.95 3.2 261 1.7 102060 41
2011-02-23 08:12 51°15.607 2°53.719 0.8 264 1.7 102070 44
2011-02-23 08:13 51°15.788 2°53.491 1.3 264 1.7 102070 42
2011-02-23 08:14 51°15.976 2°53.287 2 24 1.7 102070 41
2011-02-23 08:15 51°16.17 2°53.103 3.7 268 1.7 102070 43
2011-02-23 08:16 51°16.366 2°52.939 0.2 23 1.8 102070 43
2011-02-23 08:17 51°16.575 2°52.786 0.1 22 1.8 102070 42
2011-02-23 08:18 51°16.78 2°52.666 1.5 18 1.9 102070 43
2011-02-23 08:19 51°16.998 2°52.573 0.7 19 2 102070 42
2011-02-23 08:20 51°17.211 2°52.493 2.3 27 2.1 102060 44
2011-02-23 08:21 51°17.419 2°52.339 1.7 27 2.1 102060 43
2011-02-23 08:22 51°17.621 2°52.186 3.9 19 2.1 102060 42
2011-02-23 08:23 51°17.829 2°52.029 2.1 17 2.1 102060 42
2011-02-23 08:24 51°18.032 2°51.875 3.1 24 2.1 102050 44
2011-02-23 08:25 51°18.234 2°51.721 5.5 26 2.1 102050 44
2011-02-23 08:26 51°18.435 2°51.532 5.5 22 2.1 102040 42
2011-02-23 08:27 51°18.63 2°51.352 5.8 24 2.1 102030 41
2011-02-23 08:28 51°18.828 2°51.161 5.4 19 2.1 102040 43
2011-02-23 08:29 51°19.017 2°50.965 4.7 263 2.1 102040 42
2011-02-23 08:30 51°19.211 2°50.761 0.5 263 2.2 102050 42
2011-02-23 08:31 51°19.401 2°50.555 4.5 263 2.3 102050 43
2011-02-23 08:32 51°19.592 2°50.346 5 262 2.2 102060 42
2011-02-23 08:33 51°19.785 2°50.14 3.7 253 2.3 102060 43
2011-02-23 08:34 51°19.974 2°49.939 5 263 2.3 102050 43
2011-02-23 08:35 51°20.167 2°49.728 5.7 268 2.3 102040 42
2011-02-23 08:36 51°20.353 2°49.533 3.3 263 2.4 102040 44
2011-02-23 08:37 51°20.543 2°49.318 4.5 265 2.4 102040 43
2011-02-23 08:38 51°20.732 2°49.12 6.1 24 2.3 102040 43
2011-02-23 08:39 51°20.934 2°48.923 2.7 264 2.3 102040 43
2011-02-23 08:40 51°21.133 2°48.743 3.5 265 2.4 102040 43
2011-02-23 08:41 51°21.339 2°48.563 5.1 267 2.4 102050 42
2011-02-23 08:42 51°21.538 2°48.389 4.2 266 2.4 102070 42
2011-02-23 08:43 51°21.735 2°48.212 2.4 264 2.4 102060 42
2011-02-23 08:44 51°21.938 2°48.027 3 264 2.5 102050 43
2011-02-23 08:45 51°22.135 2°47.842 4.4 16 2.5 102060 44
2011-02-23 08:46 51°22.338 2°47.651 4.7 30 2.6 102060 43
2011-02-23 08:47 51°22.537 2°47.475 4.7 269 2.6 102060 43
2011-02-23 08:48 51°22.744 2°47.291 3 266 2.6 102060 44
2011-02-23 08:49 51°22.943 2°47.114 5.2 267 2.6 102060 44
2011-02-23 08:50 51°23.148 2°46.923 4.4 26 2.6 102050 44
2011-02-23 08:51 51°23.35 2°46.737 5.2 27 2.7 102040 44
2011-02-23 08:52 51°23.553 2°46.552 2.7 264 2.8 102040 44
2011-02-23 08:53 51°23.758 2°46.372 2.9 267 2.7 102040 45
2011-02-23 08:54 51°23.961 2°46.194 0.2 30 2.7 102040 44
2011-02-23 08:55 51°24.166 2°46.031 2 23 2.8 102040 45
2011-02-23 08:56 51°24.367 2°45.875 2.2 268 2.8 102030 44
2011-02-23 08:57 51°24.575 2°45.712 3 28 2.8 102030 45
2011-02-23 08:58 51°24.779 2°45.557 3.5 21 2.9 102040 44
2011-02-23 08:59 51°24.986 2°45.396 1.7 266 2.9 102040 44
2011-02-23 09:00 51°25.197 2°45.262 0.1 18 2.9 102040 43
2011-02-23 09:01 51°25.412 2°45.318 2.1 31 3.1 102040 45
2011-02-23 09:02 51°25.591 2°45.502 7.5 18 3.1 102040 45
2011-02-23 09:03 51°25.709 2°45.786 7.3 22 3 102020 44
2011-02-23 09:04 51°25.832 2°46.065 7.7 12 3 102030 44
2011-02-23 09:05 51°25.948 2°46.346 8.7 16 3 102030 44
2011-02-23 09:06 51°26.061 2°46.641 9.2 16 3 102020 44
2011-02-23 09:07 51°26.169 2°46.928 9.1 15 3 102030 44
2011-02-23 09:08 51°26.282 2°47.223 8.6 11 3 102030 44
2011-02-23 09:09 51°26.39 2°47.521 9.6 15 3 102040 45
2011-02-23 09:10 51°26.499 2°47.814 9.2 16 3 102040 43
2011-02-23 09:11 51°26.611 2°48.1 9.8 14 3.1 102030 45
2011-02-23 09:12 51°26.717 2°48.389 9.1 8 3 102030 43
2011-02-23 09:13 51°26.822 2°48.68 8.5 11 3.1 102030 43
2011-02-23 09:14 51°26.931 2°48.966 9.7 19 3.1 102030 43
2011-02-23 09:15 51°27.04 2°49.258 10 16 3.1 102030 44
2011-02-23 09:16 51°27.144 2°49.544 8.8 16 3 102020 44
2011-02-23 09:17 51°27.251 2°49.839 9.7 19 3 102040 44
2011-02-23 09:18 51°27.357 2°50.131 8.7 13 3 102020 44
2011-02-23 09:19 51°27.463 2°50.421 9.3 15 3 102020 44
2011-02-23 09:20 51°27.574 2°50.706 9.3 14 3 102020 43
2011-02-23 09:21 51°27.686 2°50.991 9.6 18 3 102020 44
2011-02-23 09:22 51°27.802 2°51.275 8.1 19 3 102020 44
2011-02-23 09:23 51°27.913 2°51.559 8.5 19 3.1 102030 44
2011-02-23 09:24 51°28.032 2°51.844 9.4 15 3.1 102030 43
2011-02-23 09:25 51°28.142 2°52.122 9.1 18 3.1 102020 43
2011-02-23 09:26 51°28.26 2°52.414 10 18 3.1 102030 44
2011-02-23 09:27 51°28.373 2°52.703 9.2 19 3.1 102030 44
2011-02-23 09:28 51°28.488 2°52.988 9.9 12 3.1 102020 43
2011-02-23 09:29 51°28.598 2°53.285 9.4 13 3.2 102030 43
2011-02-23 09:30 51°28.709 2°53.575 8.2 22 3.1 102030 43
2011-02-23 09:31 51°28.824 2°53.861 9 20 3.1 102030 42
2011-02-23 09:32 51°28.93 2°54.144 9.3 16 3.2 102020 44
2011-02-23 09:33 51°29.043 2°54.437 7.9 16 3.2 102030 42
2011-02-23 09:34 51°29.156 2°54.714 10.1 9 3.2 102030 42
2011-02-23 09:35 51°29.271 2°55 8.6 19 3.2 102030 42
2011-02-23 09:36 51°29.376 2°55.285 9.8 19 3.2 102030 42
2011-02-23 09:37 51°29.487 2°55.573 10.2 17 3.2 102030 42
2011-02-23 09:38 51°29.597 2°55.862 9.1 18 3.3 102030 43
2011-02-23 09:39 51°29.709 2°56.147 8.2 19 3.2 102050 42
2011-02-23 09:40 51°29.822 2°56.44 10.5 19 3.3 102030 43
2011-02-23 09:41 51°29.933 2°56.727 9.9 19 3.3 102040 43
2011-02-23 09:42 51°30.045 2°57.02 8.2 14 3.3 102040 42
2011-02-23 09:43 51°30.155 2°57.299 10.4 16 3.3 102040 42
2011-02-23 09:44 51°30.267 2°57.584 8.7 13 3.2 102040 41
2011-02-23 09:45 51°30.375 2°57.857 8.7 20 3.2 102050 42
2011-02-23 09:46 51°30.486 2°58.141 9.7 18 3.3 102040 41
2011-02-23 09:47 51°30.594 2°58.421 9.1 18 3.3 102050 42
2011-02-23 09:48 51°30.701 2°58.698 8.1 21 3.3 102040 42
2011-02-23 09:49 51°30.806 2°58.977 7.8 16 3.3 102050 43
2011-02-23 09:50 51°30.907 2°59.253 8.7 17 3.2 102040 42
2011-02-23 09:51 51°31.013 2°59.539 9.1 17 3.2 102050 42
2011-02-23 09:52 51°31.116 2°59.816 10 20 3.3 102040 42
2011-02-23 09:53 51°31.237 3°0.081 8 26 3.3 102040 43
2011-02-23 09:54 51°31.372 3°0.328 8.8 22 3.2 102050 43
2011-02-23 09:55 51°31.506 3°0.578 7.3 19 3.2 102040 42
2011-02-23 09:56 51°31.607 3°0.861 9.1 15 3.3 102030 42
2011-02-23 09:57 51°31.705 3°1.144 9.6 14 3.2 102040 42
2011-02-23 09:58 51°31.803 3°1.43 9.7 17 3.2 102040 41
2011-02-23 09:59 51°31.9 3°1.713 9.6 15 3.2 102040 43
2011-02-23 10:00 51°32 3°2.003 9.4 14 3.2 102040 41
2011-02-23 10:01 51°32.096 3°2.28 8.4 20 3.2 102040 42
2011-02-23 10:02 51°32.195 3°2.571 9.3 16 3.2 102040 42
2011-02-23 10:03 51°32.289 3°2.854 9.2 19 3.2 102030 42
2011-02-23 10:04 51°32.393 3°3.146 7.8 13 3.2 102040 42
2011-02-23 10:05 51°32.509 3°3.42 8.5 15 3.1 102040 41
2011-02-23 10:06 51°32.64 3°3.679 5.3 35 3.2 102040 42
2011-02-23 10:07 51°32.835 3°3.65 7.9 261 3.1 102050 42
2011-02-23 10:08 51°32.966 3°3.37 10.3 258 3.2 102040 42
2011-02-23 10:09 51°33.114 3°3.086 9.4 254 3.2 102040 41
2011-02-23 10:10 51°33.263 3°2.815 8.7 259 3.2 102040 42
2011-02-23 10:11 51°33.417 3°2.541 9.6 254 3.2 102030 40
2011-02-23 10:12 51°33.543 3°2.253 10.8 26 3.3 102030 42
2011-02-23 10:13 51°33.487 3°1.927 14.6 316 3.3 101990 41
2011-02-23 10:14 51°33.342 3°1.654 16.9 22 3.4 101990 42
2011-02-23 10:15 51°33.199 3°1.374 17.5 315 3.4 101990 42
2011-02-23 10:16 51°33.059 3°1.09 13 23 3.4 101980 40
2011-02-23 10:17 51°32.919 3°0.811 19.2 318 3.4 101990 42
2011-02-23 10:18 51°32.775 3°0.524 17.3 316 3.4 101980 41
2011-02-23 10:19 51°32.635 3°0.242 13.9 316 3.4 101980 41
2011-02-23 10:20 51°32.49 2°59.951 13.2 316 3.4 102000 41
2011-02-23 10:21 51°32.349 2°59.667 17.3 25 3.5 101980 41
2011-02-23 10:22 51°32.202 2°59.376 16.3 20 3.4 101980 41
2011-02-23 10:23 51°32.059 2°59.091 14.6 21 3.5 101970 41
2011-02-23 10:24 51°31.914 2°58.794 13.2 316 3.5 101980 41
2011-02-23 10:25 51°31.778 2°58.492 20.6 21 3.5 101970 41
2011-02-23 10:26 51°31.647 2°58.191 14.1 25 3.5 101970 41
2011-02-23 10:27 51°31.511 2°57.878 17.2 24 3.5 101970 41
2011-02-23 10:28 51°31.38 2°57.575 14 316 3.5 101970 41
2011-02-23 10:29 51°31.247 2°57.261 18 315 3.5 101970 41
2011-02-23 10:30 51°31.12 2°56.956 15.9 24 3.6 101980 41
2011-02-23 10:31 51°30.985 2°56.641 16.9 20 3.6 101970 41
2011-02-23 10:32 51°30.853 2°56.333 7.8 315 3.6 101970 42
2011-02-23 10:33 51°30.716 2°56.013 13.5 25 3.6 101980 41
2011-02-23 10:34 51°30.582 2°55.7 17.6 22 3.6 101970 41
2011-02-23 10:35 51°30.459 2°55.379 15.7 22 3.6 101970 41
2011-02-23 10:36 51°30.334 2°55.044 16.3 21 3.6 101970 41
2011-02-23 10:37 51°30.214 2°54.722 14.2 19 3.6 101960 41
2011-02-23 10:38 51°30.027 2°54.547 20.7 332 3.6 101990 42
2011-02-23 10:39 51°29.811 2°54.531 14.3 331 3.6 101980 41
2011-02-23 10:40 51°29.585 2°54.483 14.6 330 3.6 101980 42
2011-02-23 10:41 51°29.367 2°54.436 16.8 329 3.5 101980 41
2011-02-23 10:42 51°29.144 2°54.352 17.9 327 3.5 101980 40
2011-02-23 10:43 51°28.934 2°54.212 19.2 322 3.6 101980 42
2011-02-23 10:44 51°28.735 2°54.035 18.6 320 3.5 101970 42
2011-02-23 10:45 51°28.572 2°53.757 8.3 25 3.6 101960 41
2011-02-23 10:46 51°28.433 2°53.459 16 20 3.6 101970 42
2011-02-23 10:47 51°28.305 2°53.13 16.8 24 3.5 101940 41
2011-02-23 10:48 51°28.181 2°52.811 13.6 23 3.5 101950 41
2011-02-23 10:49 51°28.056 2°52.483 14.1 22 3.5 101970 42
2011-02-23 10:50 51°27.935 2°52.154 15.5 25 3.5 101950 41
2011-02-23 10:51 51°27.811 2°51.825 15.6 23 3.5 101950 41
2011-02-23 10:52 51°27.69 2°51.495 17.2 23 3.5 101960 41
2011-02-23 10:53 51°27.59 2°51.147 14.1 25 3.5 101960 42
2011-02-23 10:54 51°27.504 2°50.783 15.4 21 3.5 101960 41
2011-02-23 10:55 51°27.422 2°50.431 14.1 19 3.5 101950 41
2011-02-23 10:56 51°27.37 2°50.058 13.4 23 3.5 101960 42
2011-02-23 10:57 51°27.322 2°49.683 13.9 22 3.5 101970 42
2011-02-23 10:58 51°27.263 2°49.31 15.6 20 3.5 101950 42
2011-02-23 10:59 51°27.203 2°48.938 17.7 20 3.5 101950 43
2011-02-23 11:00 51°27.142 2°48.573 16 22 3.5 101950 43
2011-02-23 11:01 51°27.077 2°48.189 11.2 25 3.5 101960 43
2011-02-23 11:02 51°27.018 2°47.824 14.8 21 3.5 101940 43
2011-02-23 11:03 51°26.955 2°47.448 15 23 3.5 101940 42
2011-02-23 11:04 51°26.894 2°47.079 16.5 24 3.5 101950 42
2011-02-23 11:05 51°26.833 2°46.71 14.4 20 3.6 101960 43
2011-02-23 11:06 51°26.779 2°46.339 14.3 23 3.5 101940 43
2011-02-23 11:07 51°26.729 2°45.968 16.1 25 3.5 101940 42
2011-02-23 11:08 51°26.677 2°45.599 15.4 21 3.6 101950 44
2011-02-23 11:09 51°26.624 2°45.227 17.1 22 3.5 101950 44
2011-02-23 11:10 51°26.571 2°44.863 14.5 22 3.6 101950 44
2011-02-23 11:11 51°26.537 2°44.474 12.3 252 3.5 101940 43
2011-02-23 11:12 51°26.689 2°44.261 0.2 21 3.6 102000 44
2011-02-23 11:13 51°26.893 2°44.197 -999 27 3.8 102000 44
2011-02-23 11:14 51°27.095 2°44.143 -999 23 4.1 102000 44
2011-02-23 11:15 51°27.297 2°44.091 3.2 21 4.2 102000 42
2011-02-23 11:16 51°27.501 2°44.037 1.6 24 4.3 102000 43
2011-02-23 11:17 51°27.697 2°43.989 0.2 25 4.5 101990 43
2011-02-23 11:18 51°27.911 2°43.939 0.1 23 4.5 101990 43
2011-02-23 11:19 51°28.105 2°43.934 6.8 18 4.3 101990 43
2011-02-23 11:20 51°28.3 2°43.974 5 27 4.1 101990 42
2011-02-23 11:21 51°28.503 2°44.004 6.2 39 4 101990 42
2011-02-23 11:22 51°28.689 2°44.068 6.2 42 3.9 101980 44
2011-02-23 11:23 51°28.884 2°44.168 5 29 3.9 101980 43
2011-02-23 11:24 51°29.063 2°44.296 6 28 3.8 101970 42
2011-02-23 11:25 51°29.235 2°44.445 8 34 3.7 101980 43
2011-02-23 11:26 51°29.41 2°44.595 7.5 25 3.7 101970 44
2011-02-23 11:27 51°29.574 2°44.756 9.1 32 3.6 101970 43
2011-02-23 11:28 51°29.739 2°44.919 8.5 30 3.7 101970 44
2011-02-23 11:29 51°29.904 2°45.093 10.2 26 3.6 101960 44
2011-02-23 11:30 51°30.074 2°45.26 10.8 35 3.6 101950 44
2011-02-23 11:31 51°30.222 2°45.45 10.8 24 3.7 101950 45
2011-02-23 11:32 51°30.366 2°45.657 11 26 3.7 101960 43
2011-02-23 11:33 51°30.508 2°45.866 10.9 27 3.7 101950 43
2011-02-23 11:34 51°30.625 2°46.103 11.8 11 3.7 101950 44
2011-02-23 11:35 51°30.686 2°46.395 15.7 14 3.8 101930 44
2011-02-23 11:36 51°30.744 2°46.691 10.7 11 3.9 101930 45
2011-02-23 11:37 51°30.779 2°46.987 13.4 7 3.8 101920 44
2011-02-23 11:38 51°30.78 2°47.303 10.1 7 3.9 101920 43
2011-02-23 11:39 51°30.786 2°47.628 13.7 3 3.9 101910 44
2011-02-23 11:40 51°30.792 2°47.933 10.1 7 3.9 101910 44
2011-02-23 11:41 51°30.801 2°48.255 9.4 1 3.9 101910 44
2011-02-23 11:42 51°30.812 2°48.571 13.6 8 3.9 101920 44
2011-02-23 11:43 51°30.822 2°48.886 11 7 3.9 101910 44
2011-02-23 11:44 51°30.836 2°49.198 13.9 9 3.8 101920 43
2011-02-23 11:45 51°30.826 2°49.516 11.6 2 3.8 101910 42
2011-02-23 11:46 51°30.798 2°49.827 11.4 5 3.8 101910 43
2011-02-23 11:47 51°30.776 2°50.145 17.5 8 3.8 101910 44
2011-02-23 11:48 51°30.788 2°50.465 12.9 8 3.8 101930 44
2011-02-23 11:49 51°30.822 2°50.775 17.1 11 3.8 101920 43
2011-02-23 11:50 51°30.854 2°51.086 11.6 5 3.7 101920 42
2011-02-23 11:51 51°30.888 2°51.401 11.9 11 3.8 101920 44
2011-02-23 11:52 51°30.962 2°51.689 10.2 18 3.8 101940 43
2011-02-23 11:53 51°31.052 2°51.965 12 13 3.8 101930 44
2011-02-23 11:54 51°31.142 2°52.244 9.5 20 3.8 101940 44
2011-02-23 11:55 51°31.225 2°52.517 12.9 16 3.7 101930 43
2011-02-23 11:56 51°31.304 2°52.799 11.9 17 3.8 101940 44
2011-02-23 11:57 51°31.384 2°53.094 9.4 21 3.7 101930 43
2011-02-23 11:58 51°31.461 2°53.369 11.7 11 3.8 101930 44
2011-02-23 11:59 51°31.538 2°53.649 10.1 17 3.8 101940 44
2011-02-23 12:00 51°31.621 2°53.933 12.4 16 3.8 101930 43
2011-02-23 12:01 51°31.704 2°54.216 9.5 14 3.8 101930 43
2011-02-23 12:02 51°31.801 2°54.483 9.1 22 3.8 101930 42
2011-02-23 12:03 51°31.895 2°54.754 9.6 18 3.8 101930 44
2011-02-23 12:04 51°31.996 2°55.014 9.6 21 3.9 101930 44
2011-02-23 12:05 51°32.066 2°55.305 14 11 3.9 101930 43
2011-02-23 12:06 51°32.117 2°55.623 11.9 15 3.9 101920 44
2011-02-23 12:07 51°32.22 2°55.867 8 21 3.9 101930 44
2011-02-23 12:08 51°32.379 2°56.05 6.6 33 3.9 101950 43
2011-02-23 12:09 51°32.559 2°56.188 6.8 36 3.8 101940 44
2011-02-23 12:10 51°32.722 2°56.356 8.3 27 3.8 101940 43
2011-02-23 12:11 51°32.857 2°56.587 9.9 24 3.8 101920 42
2011-02-23 12:12 51°32.985 2°56.826 7.9 26 3.8 101920 42
2011-02-23 12:13 51°33.097 2°57.076 12.6 13 3.8 101920 43
2011-02-23 12:14 51°33.188 2°57.358 11.7 23 3.8 101920 43
2011-02-23 12:15 51°33.281 2°57.622 10.2 20 3.8 101920 43
2011-02-23 12:16 51°33.39 2°57.873 13.2 13 3.8 101920 44
2011-02-23 12:17 51°33.462 2°58.163 12 22 3.8 101910 43
2011-02-23 12:18 51°33.551 2°58.427 7.7 30 3.8 101910 43
2011-02-23 12:19 51°33.657 2°58.687 10.2 18 3.8 101920 43
2011-02-23 12:20 51°33.761 2°58.952 13.8 9 3.7 101930 44
2011-02-23 12:21 51°33.845 2°59.224 10.6 11 3.7 101920 44
2011-02-23 12:22 51°33.954 2°59.479 11.5 15 3.7 101920 44
2011-02-23 12:23 51°34.069 2°59.711 7.4 30 3.7 101930 44
2011-02-23 12:24 51°34.167 2°59.975 10.1 18 3.6 101900 44
2011-02-23 12:25 51°34.261 3°0.246 8.8 20 3.7 101910 43
2011-02-23 12:26 51°34.372 3°0.508 9.6 16 3.7 101910 44
2011-02-23 12:27 51°34.492 3°0.724 5.5 26 3.6 101920 44
2011-02-23 12:28 51°34.648 3°0.553 5.2 263 3.6 101920 44
2011-02-23 12:29 51°34.773 3°0.269 5.5 264 3.6 101920 44
2011-02-23 12:30 51°34.908 2°59.994 12.6 257 3.6 101920 44
2011-02-23 12:31 51°35.027 2°59.697 9.9 262 3.7 101920 45
2011-02-23 12:32 51°35.148 2°59.402 8.2 261 3.7 101920 43
2011-02-23 12:33 51°35.237 2°59.095 12.7 23 3.7 101900 42
2011-02-23 12:34 51°35.154 2°58.755 18.8 22 3.7 101850 43
2011-02-23 12:35 51°35 2°58.467 17.5 317 3.7 101850 43
2011-02-23 12:36 51°34.867 2°58.154 15.1 24 3.7 101840 43
2011-02-23 12:37 51°34.73 2°57.841 19.5 21 3.9 101860 44
2011-02-23 12:38 51°34.585 2°57.539 14.1 23 3.8 101840 43
2011-02-23 12:39 51°34.441 2°57.238 18.4 24 3.9 101840 43
2011-02-23 12:40 51°34.319 2°56.911 16 22 3.9 101850 43
2011-02-23 12:41 51°34.185 2°56.598 16.5 22 3.9 101840 43
2011-02-23 12:42 51°34.054 2°56.281 17.9 23 3.9 101830 43
2011-02-23 12:43 51°33.915 2°55.976 20.2 25 3.9 101830 43
2011-02-23 12:44 51°33.781 2°55.666 17.1 24 3.9 101830 42
2011-02-23 12:45 51°33.64 2°55.37 18.8 21 3.9 101850 43
2011-02-23 12:46 51°33.505 2°55.061 14.7 21 3.9 101830 43
2011-02-23 12:47 51°33.365 2°54.763 7.4 23 3.9 101850 43
2011-02-23 12:48 51°33.22 2°54.468 17.6 22 3.8 101830 42
2011-02-23 12:49 51°33.092 2°54.151 18.5 24 3.8 101820 43
2011-02-23 12:50 51°32.962 2°53.837 15.5 22 3.8 101830 43
2011-02-23 12:51 51°32.83 2°53.527 17.6 21 3.8 101810 44
2011-02-23 12:52 51°32.713 2°53.207 12.8 24 3.9 101830 43
2011-02-23 12:53 51°32.589 2°52.896 15.4 24 3.8 101820 43
2011-02-23 12:54 51°32.471 2°52.574 17.4 25 3.8 101820 44
2011-02-23 12:55 51°32.35 2°52.255 16.6 26 3.8 101830 44
2011-02-23 12:56 51°32.238 2°51.929 15.7 24 3.7 101820 44
2011-02-23 12:57 51°32.112 2°51.615 16.8 20 3.8 101810 44
2011-02-23 12:58 51°31.983 2°51.31 18.1 23 3.8 101830 43
2011-02-23 12:59 51°31.872 2°50.99 20.8 21 3.8 101820 43
2011-02-23 13:00 51°31.76 2°50.667 16.2 22 3.8 101810 43
2011-02-23 13:01 51°31.638 2°50.351 18.9 25 3.7 101820 44
2011-02-23 13:02 51°31.519 2°50.025 19.5 20 3.7 101820 44
2011-02-23 13:03 51°31.401 2°49.722 17.8 23 3.7 101830 44
2011-02-23 13:04 51°31.277 2°49.398 15.4 23 3.6 101790 44
2011-02-23 13:05 51°31.164 2°49.09 17 23 3.6 101800 45
2011-02-23 13:06 51°31.037 2°48.767 15 19 3.6 101800 44
2011-02-23 13:07 51°30.908 2°48.477 17.1 21 3.6 101820 45
2011-02-23 13:08 51°30.809 2°48.133 16.5 21 3.7 101800 45
2011-02-23 13:09 51°30.725 2°47.805 17.5 23 3.7 101810 45
2011-02-23 13:10 51°30.636 2°47.454 16.2 23 3.7 101820 45
2011-02-23 13:11 51°30.552 2°47.112 16 23 3.7 101810 45
2011-02-23 13:12 51°30.459 2°46.791 22.1 22 3.7 101790 45
2011-02-23 13:13 51°30.309 2°46.503 18.7 315 3.6 101790 45
2011-02-23 13:14 51°30.166 2°46.235 15.7 19 3.7 101810 45
2011-02-23 13:15 51°30.016 2°45.942 21 24 3.7 101800 45
2011-02-23 13:16 51°29.877 2°45.67 19.6 21 3.7 101790 45
2011-02-23 13:17 51°29.741 2°45.363 15.4 20 3.7 101790 45
2011-02-23 13:18 51°29.618 2°45.073 17.8 22 3.6 101780 44
2011-02-23 13:19 51°29.495 2°44.771 16.8 23 3.6 101790 45
2011-02-23 13:20 51°29.369 2°44.473 18 20 3.6 101800 45
2011-02-23 13:21 51°29.241 2°44.182 17.4 22 3.5 101780 44
2011-02-23 13:22 51°29.112 2°43.871 8.3 20 3.6 101790 46
2011-02-23 13:23 51°28.991 2°43.581 16.1 22 3.5 101770 45
2011-02-23 13:24 51°28.86 2°43.27 20.6 22 3.6 101780 45
2011-02-23 13:25 51°28.74 2°42.976 15.8 23 3.5 101780 45
2011-02-23 13:26 51°28.616 2°42.662 18.3 24 3.6 101780 45
2011-02-23 13:27 51°28.503 2°42.368 16.9 22 3.6 101780 46
2011-02-23 13:28 51°28.382 2°42.065 16 20 3.5 101780 46
2011-02-23 13:29 51°28.262 2°41.761 17 21 3.6 101770 47
2011-02-23 13:30 51°28.144 2°41.46 18 22 3.6 101760 46
2011-02-23 13:31 51°28.021 2°41.148 15 20 3.6 101770 45
2011-02-23 13:32 51°27.906 2°40.859 14.9 21 3.6 101750 46
2011-02-23 13:33 51°27.783 2°40.547 16.6 21 3.6 101760 46
2011-02-23 13:34 51°27.67 2°40.256 17.6 22 3.6 101750 46
2011-02-23 13:35 51°27.548 2°39.948 15.6 21 3.6 101760 47
2011-02-23 13:36 51°27.432 2°39.657 14.2 19 3.6 101750 45
2011-02-23 13:37 51°27.269 2°39.444 16.9 331 3.7 101760 47
2011-02-23 13:38 51°27.084 2°39.591 18.3 343 3.7 101760 46
2011-02-23 13:39 51°26.906 2°39.791 15.7 340 3.7 101760 46
2011-02-23 13:40 51°26.727 2°39.983 14.2 342 3.7 101750 46
2011-02-23 13:41 51°26.542 2°40.182 19.1 345 3.7 101770 46
2011-02-23 13:42 51°26.362 2°40.377 17.9 342 3.7 101770 46
2011-02-23 13:43 51°26.185 2°40.569 17.2 341 3.7 101760 46
2011-02-23 13:44 51°26.003 2°40.769 17.3 342 3.7 101750 46
2011-02-23 13:45 51°25.823 2°40.964 15.4 342 3.6 101750 46
2011-02-23 13:46 51°25.646 2°41.158 21.8 342 3.6 101760 46
2011-02-23 13:47 51°25.467 2°41.356 18.3 341 3.6 101760 46
2011-02-23 13:48 51°25.28 2°41.53 12.3 340 3.6 101740 46
2011-02-23 13:49 51°25.091 2°41.701 18.4 340 3.6 101760 46
2011-02-23 13:50 51°24.906 2°41.872 14.5 338 3.5 101750 46
2011-02-23 13:51 51°24.713 2°42.047 8.3 341 3.6 101770 46
2011-02-23 13:52 51°24.522 2°42.22 17.1 338 3.6 101770 46
2011-02-23 13:53 51°24.337 2°42.393 16.6 339 3.6 101770 47
2011-02-23 13:54 51°24.143 2°42.567 13.3 339 3.5 101770 47
2011-02-23 13:55 51°23.955 2°42.738 20 340 3.5 101770 46
2011-02-23 13:56 51°23.77 2°42.909 19.8 339 3.5 101770 47
2011-02-23 13:57 51°23.577 2°43.08 16.4 341 3.5 101760 47
2011-02-23 13:58 51°23.389 2°43.247 17.2 338 3.5 101780 47
2011-02-23 13:59 51°23.2 2°43.415 21.4 337 3.5 101780 46
2011-02-23 14:00 51°23.013 2°43.586 24.3 337 3.4 101770 46
2011-02-23 14:01 51°22.827 2°43.758 14.2 340 3.4 101780 47
2011-02-23 14:02 51°22.642 2°43.937 17.3 336 3.4 101770 46
2011-02-23 14:03 51°22.462 2°44.116 13.9 339 3.4 101770 46
2011-02-23 14:04 51°22.271 2°44.298 18.9 337 3.4 101770 46
2011-02-23 14:05 51°22.082 2°44.477 13.4 339 3.4 101760 46
2011-02-23 14:06 51°21.898 2°44.655 18.2 335 3.4 101770 46
2011-02-23 14:07 51°21.71 2°44.843 18.2 337 3.4 101780 48
2011-02-23 14:08 51°21.524 2°45.027 13.9 339 3.4 101760 47
2011-02-23 14:09 51°21.344 2°45.208 21.8 339 3.3 101770 46
2011-02-23 14:10 51°21.156 2°45.397 15.7 337 3.3 101770 47
2011-02-23 14:11 51°20.978 2°45.58 18.8 337 3.2 101780 47
2011-02-23 14:12 51°20.799 2°45.76 18.2 337 3.3 101760 47
2011-02-23 14:13 51°20.62 2°45.945 16.7 339 3.3 101770 47
2011-02-23 14:14 51°20.441 2°46.132 14.8 340 3.2 101770 47
2011-02-23 14:15 51°20.263 2°46.318 13.3 339 3.2 101780 47
2011-02-23 14:16 51°20.077 2°46.516 18.5 339 3.2 101770 47
2011-02-23 14:17 51°19.893 2°46.704 17.9 339 3.1 101780 47
2011-02-23 14:18 51°19.714 2°46.881 17 338 3.1 101780 46
2011-02-23 14:19 51°19.531 2°47.065 14.1 337 3.1 101770 46
2011-02-23 14:20 51°19.349 2°47.245 17.4 339 3.1 101770 47
2011-02-23 14:21 51°19.168 2°47.428 14.5 336 3.2 101790 47
2011-02-23 14:22 51°18.986 2°47.609 13.9 338 3.1 101760 47
2011-02-23 14:23 51°18.803 2°47.791 15.2 339 3.2 101780 47
2011-02-23 14:24 51°18.62 2°47.973 15.8 337 3.2 101780 47
2011-02-23 14:25 51°18.437 2°48.16 20.7 337 3.2 101770 47
2011-02-23 14:26 51°18.253 2°48.348 20.9 337 3.2 101780 46
2011-02-23 14:27 51°18.066 2°48.525 16.6 338 3.2 101790 47
2011-02-23 14:28 51°17.879 2°48.703 20.9 336 3.2 101790 47
2011-02-23 14:29 51°17.693 2°48.864 15.8 334 3.2 101780 47
2011-02-23 14:30 51°17.5 2°49.02 11.8 334 3.2 101790 46
2011-02-23 14:31 51°17.313 2°49.173 16.4 334 3.2 101780 47
2011-02-23 14:32 51°17.129 2°49.324 20.6 334 3.2 101800 46
2011-02-23 14:33 51°16.941 2°49.484 19.8 334 3.2 101790 47
2011-02-23 14:34 51°16.756 2°49.64 16.8 338 3.2 101810 46
2011-02-23 14:35 51°16.571 2°49.805 8 336 3.2 101800 47
2011-02-23 14:36 51°16.391 2°49.992 20.3 336 3.2 101790 46
2011-02-23 14:37 51°16.21 2°50.182 14.2 339 3.1 101790 46
2011-02-23 14:38 51°16.025 2°50.37 15.7 334 3.2 101800 48
2011-02-23 14:39 51°15.845 2°50.56 18.3 334 3.2 101800 48
2011-02-23 14:40 51°15.706 2°50.829 15 349 3.2 101780 47
2011-02-23 14:41 51°15.616 2°51.176 17.6 346 3.1 101780 46
2011-02-23 14:42 51°15.525 2°51.525 14.8 347 3 101780 47
2011-02-23 14:43 51°15.435 2°51.869 14.2 348 3 101790 47
2011-02-23 14:44 51°15.36 2°52.176 17 350 2.9 101780 47
2011-02-23 14:45 51°15.291 2°52.464 13.3 351 3 101790 46
2011-02-23 14:46 51°15.219 2°52.761 17.6 351 3 101790 47
2011-02-23 14:47 51°15.145 2°53.065 18.3 350 3 101790 47
2011-02-23 14:48 51°15.082 2°53.328 13.2 346 2.9 101800 47
2011-02-23 14:49 51°15.049 2°53.528 13.9 351 2.9 101800 46
2011-02-23 14:50 51°15.024 2°53.714 13.9 348 2.9 101810 47
2011-02-23 14:51 51°14.995 2°53.9 15 353 2.9 101810 46
2011-02-23 14:52 51°14.925 2°54.165 12.5 348 3 101800 47
2011-02-23 14:53 51°14.835 2°54.446 12 348 3 101800 47
2011-02-23 14:54 51°14.726 2°54.733 13.9 337 3 101810 46
2011-02-23 14:55 51°14.596 2°54.973 10.6 338 3 101820 47
2011-02-23 14:56 51°14.457 2°55.124 10.8 333 3 101820 47
2011-02-23 14:57 51°14.356 2°55.209 10.4 336 3 101840 47
2011-02-23 14:58 51°14.284 2°55.272 7.9 339 3 101840 48
2011-02-23 14:59 51°14.213 2°55.335 8.3 339 2.9 101840 47
2011-02-23 15:00 51°14.119 2°55.413 11.6 335 2.9 101830 47
2011-02-23 15:01 51°14.002 2°55.501 10.2 333 3 101840 46
2011-02-23 15:02 51°13.905 2°55.571 9.4 332 2.9 101830 47
2011-02-23 15:03 51°13.817 2°55.637 8.8 337 2.9 101830 46
2011-02-23 15:04 51°13.75 2°55.724 8 346 2.9 101830 47
2011-02-23 15:05 51°13.71 2°55.808 9.1 359 2.9 101840 48
2011-02-23 15:06 51°13.679 2°55.884 3.5 341 2.9 101840 48
2011-02-23 15:07 51°13.667 2°55.944 2.4 2 2.9 101830 47
2011-02-23 15:08 51°13.665 2°55.955 5.7 347 2.9 101840 46